createdAt,value
2023-05-05T00:02:17.927Z,80.72
2023-05-05T00:04:46.080Z,81.77
2023-05-05T00:07:13.977Z,81.68
2023-05-05T00:09:41.911Z,80.71
2023-05-05T00:12:11.387Z,80.63
2023-05-05T00:14:39.258Z,80.94
2023-05-05T00:17:07.244Z,81.03
2023-05-05T00:19:35.288Z,81.18
2023-05-05T00:22:03.342Z,82.15
2023-05-05T00:24:31.250Z,82.85
2023-05-05T00:26:59.225Z,82.74
2023-05-05T00:29:28.468Z,82.68
2023-05-05T00:31:57.312Z,81.79
2023-05-05T00:34:25.192Z,81.96
2023-05-05T00:36:53.410Z,82.08
2023-05-05T00:39:21.615Z,81.92
2023-05-05T00:41:49.538Z,81.53
2023-05-05T00:44:17.466Z,81.11
2023-05-05T00:46:46.968Z,81.54
2023-05-05T00:49:15.007Z,82.05
2023-05-05T00:51:43.441Z,81.75
2023-05-05T00:54:11.426Z,82.29
2023-05-05T00:56:39.413Z,81.64
2023-05-05T00:59:07.265Z,82.37
2023-05-05T01:01:35.124Z,81.33
2023-05-05T01:04:04.539Z,82.17
2023-05-05T01:06:48.475Z,82.21
2023-05-05T01:09:25.409Z,83.03
2023-05-05T01:12:02.139Z,82.77
2023-05-05T01:14:39.606Z,83.42
2023-05-05T01:17:17.294Z,84.43
2023-05-05T01:20:15.511Z,84.75
2023-05-05T01:22:47.823Z,84.40
2023-05-05T01:25:46.995Z,84.21
2023-05-05T01:28:29.315Z,84.29
2023-05-05T01:31:29.060Z,84.74
2023-05-05T01:34:05.446Z,84.37
2023-05-05T01:36:37.525Z,85.65
2023-05-05T01:39:09.553Z,85.45
2023-05-05T01:41:42.251Z,85.43
2023-05-05T01:44:12.614Z,85.54
2023-05-05T01:46:40.584Z,85.51
2023-05-05T01:49:12.204Z,85.31
2023-05-05T01:51:41.757Z,85.33
2023-05-05T01:54:10.613Z,85.10
2023-05-05T01:56:41.096Z,86.39
2023-05-05T01:59:10.548Z,85.38
2023-05-05T02:01:44.695Z,85.40
2023-05-05T02:04:16.101Z,84.95
2023-05-05T02:06:45.450Z,84.93
2023-05-05T02:09:15.423Z,84.59
2023-05-05T02:11:43.464Z,87.59
2023-05-05T02:14:13.292Z,86.48
2023-05-05T02:16:43.481Z,85.40
2023-05-05T02:19:12.323Z,85.14
2023-05-05T02:21:42.280Z,84.11
2023-05-05T02:24:10.289Z,87.79
2023-05-05T02:26:41.233Z,85.66
2023-05-05T02:29:12.043Z,85.15
2023-05-05T02:31:45.371Z,85.44
2023-05-05T02:34:17.462Z,84.90
2023-05-05T02:36:48.970Z,85.20
2023-05-05T02:39:26.161Z,85.50
2023-05-05T02:41:57.129Z,85.33
2023-05-05T02:44:27.148Z,84.71
2023-05-05T02:46:54.941Z,88.43
2023-05-05T02:49:22.954Z,86.13
2023-05-05T02:51:52.520Z,84.98
2023-05-05T02:54:20.719Z,84.90
2023-05-05T02:56:51.023Z,86.35
2023-05-05T02:59:27.335Z,86.85
2023-05-05T03:02:07.926Z,86.67
2023-05-05T03:04:40.609Z,86.50
2023-05-05T03:07:14.377Z,87.28
2023-05-05T03:09:47.889Z,86.97
2023-05-05T03:12:21.735Z,87.11
2023-05-05T03:14:53.323Z,86.58
2023-05-05T03:17:23.435Z,88.80
2023-05-05T03:19:52.329Z,88.10
2023-05-05T03:22:21.704Z,87.70
2023-05-05T03:24:51.506Z,88.35
2023-05-05T03:27:20.482Z,87.23
2023-05-05T03:29:48.539Z,87.04
2023-05-05T03:32:16.692Z,87.36
2023-05-05T03:34:44.627Z,87.74
2023-05-05T03:37:12.604Z,86.77
2023-05-05T03:39:41.806Z,86.83
2023-05-05T03:42:09.886Z,87.09
2023-05-05T03:44:37.877Z,87.45
2023-05-05T03:47:06.132Z,87.56
2023-05-05T03:49:34.089Z,87.04
2023-05-05T03:52:02.224Z,87.03
2023-05-05T03:54:30.187Z,87.10
2023-05-05T03:56:59.868Z,87.11
2023-05-05T03:59:27.842Z,85.80
2023-05-05T04:01:55.903Z,83.46
2023-05-05T04:04:23.822Z,84.29
2023-05-05T04:06:51.735Z,85.16
2023-05-05T04:09:19.645Z,85.54
2023-05-05T04:11:47.450Z,86.35
2023-05-05T04:14:16.769Z,86.36
2023-05-05T04:16:44.588Z,87.25
2023-05-05T04:19:13.555Z,88.00
2023-05-05T04:21:41.467Z,88.79
2023-05-05T04:24:09.626Z,88.29
2023-05-05T04:26:37.480Z,88.25
2023-05-05T04:29:05.607Z,88.12
2023-05-05T04:31:34.950Z,88.70
2023-05-05T04:34:02.987Z,88.90
2023-05-05T04:36:30.853Z,88.72
2023-05-05T04:38:58.982Z,89.00
2023-05-05T04:41:28.243Z,89.34
2023-05-05T04:43:57.874Z,89.96
2023-05-05T04:46:26.607Z,90.20
2023-05-05T04:48:55.930Z,90.89
2023-05-05T04:51:26.321Z,90.52
2023-05-05T04:53:54.132Z,89.90
2023-05-05T04:56:22.051Z,88.96
2023-05-05T04:58:51.101Z,89.67
2023-05-05T05:01:19.057Z,88.71
2023-05-05T05:03:46.995Z,86.49
2023-05-05T05:06:16.819Z,85.78
2023-05-05T05:08:44.683Z,84.96
2023-05-05T05:11:12.619Z,82.49
2023-05-05T05:13:41.627Z,81.92
2023-05-05T05:16:09.685Z,82.18
2023-05-05T05:18:37.541Z,81.93
2023-05-05T05:21:05.607Z,83.25
2023-05-05T05:23:34.906Z,83.54
2023-05-05T05:26:02.854Z,83.53
2023-05-05T05:28:30.793Z,82.39
2023-05-05T05:30:59.020Z,82.19
2023-05-05T05:33:27.043Z,82.09
2023-05-05T05:35:54.854Z,81.93
2023-05-05T05:38:22.799Z,82.67
2023-05-05T05:40:52.059Z,83.11
2023-05-05T05:43:19.979Z,82.60
2023-05-05T05:45:47.963Z,82.64
2023-05-05T05:48:15.826Z,83.10
2023-05-05T05:50:43.728Z,82.69
2023-05-05T05:53:11.678Z,82.17
2023-05-05T05:55:39.558Z,82.51
2023-05-05T05:58:08.797Z,82.61
2023-05-05T06:00:36.692Z,81.69
2023-05-05T06:03:04.726Z,81.31
2023-05-05T06:05:32.617Z,79.86
2023-05-05T06:08:00.468Z,79.55
2023-05-05T06:10:28.682Z,80.15
2023-05-05T06:12:56.803Z,76.99
2023-05-05T06:15:26.495Z,78.60
2023-05-05T06:17:54.621Z,77.26
2023-05-05T06:20:22.567Z,75.80
2023-05-05T06:22:50.530Z,75.48
2023-05-05T06:25:18.618Z,73.75
2023-05-05T06:27:46.562Z,73.95
2023-05-05T06:30:15.742Z,73.98
2023-05-05T06:32:45.014Z,74.41
2023-05-05T06:35:12.944Z,74.23
2023-05-05T06:37:40.921Z,73.19
2023-05-05T06:40:10.563Z,72.87
2023-05-05T06:42:38.689Z,72.05
2023-05-05T06:45:07.488Z,73.16
2023-05-05T06:47:35.984Z,71.20
2023-05-05T06:50:06.143Z,70.25
2023-05-05T06:52:34.134Z,67.75
2023-05-05T06:55:02.097Z,71.24
2023-05-05T06:57:29.980Z,71.10
2023-05-05T06:59:57.898Z,70.96
2023-05-05T07:02:26.924Z,71.93
2023-05-05T07:04:55.687Z,70.71
2023-05-05T07:07:25.080Z,70.55
2023-05-05T07:09:52.960Z,70.27
2023-05-05T07:12:20.948Z,69.92
2023-05-05T07:14:48.862Z,69.65
2023-05-05T07:17:16.790Z,71.60
2023-05-05T07:19:44.629Z,69.91
2023-05-05T07:22:12.529Z,71.03
2023-05-05T07:24:41.915Z,70.33
2023-05-05T07:27:09.990Z,70.25
2023-05-05T07:29:37.932Z,70.79
2023-05-05T07:32:06.483Z,70.59
2023-05-05T07:34:34.702Z,70.65
2023-05-05T07:37:04.066Z,69.38
2023-05-05T07:39:32.059Z,68.64
2023-05-05T07:42:01.730Z,66.48
2023-05-05T07:44:29.749Z,66.88
2023-05-05T07:46:57.597Z,64.99
2023-05-05T07:49:25.655Z,65.59
2023-05-05T07:51:54.413Z,64.92
2023-05-05T07:54:22.348Z,64.70
2023-05-05T07:56:50.204Z,65.03
2023-05-05T07:59:19.484Z,63.70
2023-05-05T08:01:47.389Z,62.17
2023-05-05T08:04:15.412Z,61.53
2023-05-05T08:06:43.323Z,61.48
2023-05-05T08:09:11.303Z,61.79
2023-05-05T08:11:39.254Z,63.30
2023-05-05T08:14:07.752Z,62.37
2023-05-05T08:16:37.029Z,61.63
2023-05-05T08:19:09.731Z,62.46
2023-05-05T08:21:42.615Z,60.96
2023-05-05T08:24:10.555Z,59.90
2023-05-05T08:26:38.403Z,59.51
2023-05-05T08:29:06.440Z,60.22
2023-05-05T08:31:38.005Z,59.55
2023-05-05T08:34:06.424Z,58.26
2023-05-05T08:36:34.603Z,59.23
2023-05-05T08:39:02.491Z,61.24
2023-05-05T08:41:32.620Z,60.18
2023-05-05T08:44:00.944Z,60.39
2023-05-05T08:46:29.391Z,58.62
2023-05-05T08:48:59.275Z,58.23
2023-05-05T08:51:31.490Z,57.85
2023-05-05T08:54:06.205Z,56.96
2023-05-05T08:56:36.233Z,55.42
2023-05-05T08:59:04.746Z,55.64
2023-05-05T09:01:33.945Z,55.27
2023-05-05T09:04:05.115Z,55.36
2023-05-05T09:06:33.834Z,53.87
2023-05-05T09:09:02.389Z,53.92
2023-05-05T09:11:30.374Z,54.42
2023-05-05T09:13:58.279Z,54.33
2023-05-05T09:16:26.159Z,53.98
2023-05-05T09:19:04.536Z,52.29
2023-05-05T09:21:33.104Z,54.62
2023-05-05T09:24:11.712Z,52.50
2023-05-05T09:26:42.551Z,53.17
2023-05-05T09:29:10.659Z,54.14
2023-05-05T09:31:38.627Z,54.40
2023-05-05T09:34:18.280Z,52.91
2023-05-05T09:36:49.007Z,54.33
2023-05-05T09:39:19.471Z,54.53
2023-05-05T09:41:47.734Z,53.84
2023-05-05T09:44:17.011Z,54.32
2023-05-05T09:46:53.254Z,53.90
2023-05-05T09:49:25.617Z,54.07
2023-05-05T09:51:54.169Z,53.97
2023-05-05T09:54:26.415Z,53.94
2023-05-05T09:56:54.847Z,54.41
2023-05-05T09:59:22.993Z,53.07
2023-05-05T10:01:52.232Z,53.52
2023-05-05T10:04:29.379Z,53.20
2023-05-05T10:06:58.621Z,53.63
2023-05-05T10:09:27.353Z,53.03
2023-05-05T10:11:57.280Z,52.99
2023-05-05T10:14:26.259Z,53.01
2023-05-05T10:16:55.815Z,52.08
2023-05-05T10:19:25.487Z,53.18
2023-05-05T10:22:03.880Z,52.58
2023-05-05T10:24:36.380Z,52.31
2023-05-05T10:27:13.211Z,51.25
2023-05-05T10:29:48.804Z,51.48
2023-05-05T10:32:53.484Z,50.47
2023-05-05T10:35:18.260Z,51.21
2023-05-05T10:37:48.525Z,50.34
2023-05-05T10:40:17.700Z,49.78
2023-05-05T10:42:45.938Z,50.37
2023-05-05T10:45:13.813Z,51.18
2023-05-05T10:47:42.041Z,49.71
2023-05-05T10:50:16.945Z,51.34
2023-05-05T10:52:57.693Z,49.18
2023-05-05T10:55:35.096Z,50.28
2023-05-05T10:58:03.117Z,49.62
2023-05-05T11:00:52.203Z,45.65
2023-05-05T11:03:24.448Z,49.28
2023-05-05T11:06:16.339Z,49.49
2023-05-05T11:08:45.959Z,50.09
2023-05-05T11:11:14.486Z,49.29
2023-05-05T11:13:42.688Z,48.44
2023-05-05T11:16:45.521Z,48.25
2023-05-05T11:19:52.182Z,47.46
2023-05-05T11:22:20.107Z,49.92
2023-05-05T11:24:49.336Z,49.23
2023-05-05T11:27:17.157Z,49.58
2023-05-05T11:30:13.160Z,48.37
2023-05-05T11:32:41.400Z,48.98
2023-05-05T11:35:09.330Z,48.60
2023-05-05T11:37:39.595Z,48.25
2023-05-05T11:40:21.976Z,48.31
2023-05-05T11:42:49.983Z,49.47
2023-05-05T11:45:23.061Z,48.59
2023-05-05T11:47:51.236Z,48.22
2023-05-05T11:50:21.714Z,48.33
2023-05-05T11:52:50.102Z,48.23
2023-05-05T11:55:25.531Z,47.45
2023-05-05T11:57:53.583Z,48.05
2023-05-05T12:00:21.743Z,48.52
2023-05-05T12:02:58.595Z,48.83
2023-05-05T12:05:26.704Z,48.99
2023-05-05T12:07:58.487Z,48.72
2023-05-05T12:10:28.417Z,48.65
2023-05-05T12:12:56.459Z,48.93
2023-05-05T12:15:31.928Z,48.64
2023-05-05T12:18:02.443Z,48.80
2023-05-05T12:20:31.961Z,48.13
2023-05-05T12:23:04.360Z,49.78
2023-05-05T12:25:40.861Z,49.29
2023-05-05T12:28:09.588Z,48.41
2023-05-05T12:30:37.910Z,49.41
2023-05-05T12:33:07.317Z,48.84
2023-05-05T12:35:35.823Z,48.50
2023-05-05T12:38:04.096Z,48.90
2023-05-05T12:40:46.902Z,47.14
2023-05-05T12:43:29.462Z,46.78
2023-05-05T12:46:08.802Z,48.14
2023-05-05T12:48:39.127Z,47.49
2023-05-05T12:51:15.061Z,46.68
2023-05-05T12:53:43.633Z,47.51
2023-05-05T12:56:41.142Z,46.17
2023-05-05T12:59:12.420Z,48.28
2023-05-05T13:01:50.196Z,49.37
2023-05-05T13:04:18.376Z,47.77
2023-05-05T13:06:47.662Z,47.67
2023-05-05T13:09:25.896Z,45.38
2023-05-05T13:11:55.913Z,47.52
2023-05-05T13:14:24.166Z,48.58
2023-05-05T13:16:52.081Z,47.86
2023-05-05T13:19:20.005Z,47.62
2023-05-05T13:21:47.945Z,47.87
2023-05-05T13:24:28.767Z,46.38
2023-05-05T13:27:04.554Z,47.33
2023-05-05T13:29:33.122Z,47.06
2023-05-05T13:32:01.531Z,47.75
2023-05-05T13:34:29.510Z,47.45
2023-05-05T13:36:57.507Z,48.39
2023-05-05T13:39:25.476Z,48.01
2023-05-05T13:41:53.412Z,48.14
2023-05-05T13:44:23.057Z,46.97
2023-05-05T13:46:51.012Z,48.01
2023-05-05T13:49:20.088Z,47.77
2023-05-05T13:51:48.097Z,48.75
2023-05-05T13:54:15.975Z,48.58
2023-05-05T13:56:44.112Z,47.27
2023-05-05T13:59:12.002Z,46.85
2023-05-05T14:01:41.523Z,47.11
2023-05-05T14:04:10.482Z,47.53
2023-05-05T14:06:38.350Z,46.43
2023-05-05T14:09:07.959Z,47.58
2023-05-05T14:11:35.960Z,47.79
2023-05-05T14:14:03.950Z,47.68
2023-05-05T14:16:31.988Z,47.22
2023-05-05T14:19:01.641Z,47.22
2023-05-05T14:21:29.627Z,46.48
2023-05-05T14:23:57.665Z,46.81
2023-05-05T14:26:28.137Z,47.00
2023-05-05T14:28:56.200Z,46.44
2023-05-05T14:31:24.238Z,46.34
2023-05-05T14:33:53.423Z,47.71
2023-05-05T14:36:23.581Z,47.46
2023-05-05T14:38:51.542Z,46.80
2023-05-05T14:41:19.408Z,47.19
2023-05-05T14:43:47.218Z,46.99
2023-05-05T14:46:15.210Z,46.29
2023-05-05T14:48:43.550Z,46.37
2023-05-05T14:51:11.366Z,45.27
2023-05-05T14:53:40.690Z,45.27
2023-05-05T14:56:08.681Z,45.30
2023-05-05T14:58:36.488Z,45.72
2023-05-05T15:01:05.028Z,46.12
2023-05-05T15:03:33.112Z,47.50
2023-05-05T15:06:01.361Z,46.50
2023-05-05T15:08:29.300Z,47.65
2023-05-05T15:10:58.634Z,46.55
2023-05-05T15:13:26.646Z,46.66
2023-05-05T15:15:54.586Z,47.99
2023-05-05T15:18:22.563Z,48.23
2023-05-05T15:20:50.916Z,47.09
2023-05-05T15:23:18.831Z,47.24
2023-05-05T15:25:46.779Z,47.71
2023-05-05T15:28:16.102Z,47.89
2023-05-05T15:30:44.113Z,47.86
2023-05-05T15:33:12.145Z,47.90
2023-05-05T15:35:40.047Z,47.92
2023-05-05T15:38:08.022Z,48.13
2023-05-05T15:40:36.081Z,47.77
2023-05-05T15:43:04.206Z,48.05
2023-05-05T15:45:33.708Z,48.83
2023-05-05T15:48:01.642Z,46.69
2023-05-05T15:50:29.645Z,48.68
2023-05-05T15:52:58.032Z,47.91
2023-05-05T15:55:28.459Z,48.20
2023-05-05T15:57:56.078Z,46.47
2023-05-05T16:00:24.072Z,48.99
2023-05-05T16:02:53.397Z,48.18
2023-05-05T16:05:23.182Z,47.47
2023-05-05T16:07:52.548Z,48.61
2023-05-05T16:10:20.693Z,47.05
2023-05-05T16:12:48.664Z,48.31
2023-05-05T16:15:16.731Z,47.95
2023-05-05T16:17:44.686Z,48.10
2023-05-05T16:20:14.396Z,46.70
2023-05-05T16:22:42.382Z,49.21
2023-05-05T16:25:11.167Z,49.79
2023-05-05T16:27:39.181Z,50.06
2023-05-05T16:30:08.948Z,50.46
2023-05-05T16:32:36.985Z,50.63
2023-05-05T16:35:07.142Z,50.90
2023-05-05T16:37:36.572Z,49.68
2023-05-05T16:40:06.032Z,51.02
2023-05-05T16:42:33.923Z,50.63
2023-05-05T16:45:01.828Z,51.37
2023-05-05T16:47:29.815Z,49.96
2023-05-05T16:49:57.801Z,51.21
2023-05-05T16:52:25.721Z,50.79
2023-05-05T16:54:56.188Z,50.60
2023-05-05T16:57:24.438Z,50.71
2023-05-05T16:59:52.422Z,50.49
2023-05-05T17:02:20.394Z,50.70
2023-05-05T17:04:48.511Z,50.50
2023-05-05T17:07:16.486Z,50.07
2023-05-05T17:09:44.710Z,50.47
2023-05-05T17:12:14.019Z,50.83
2023-05-05T17:14:41.907Z,50.91
2023-05-05T17:17:11.528Z,52.06
2023-05-05T17:19:39.463Z,53.22
2023-05-05T17:22:07.442Z,52.71
2023-05-05T17:24:35.371Z,53.08
2023-05-05T17:27:03.296Z,53.19
2023-05-05T17:29:36.823Z,53.13
2023-05-05T17:32:05.265Z,53.29
2023-05-05T17:34:33.186Z,53.64
2023-05-05T17:37:01.128Z,53.32
2023-05-05T17:39:29.135Z,53.65
2023-05-05T17:41:57.052Z,53.33
2023-05-05T17:44:25.020Z,54.44
2023-05-05T17:46:54.228Z,55.23
2023-05-05T17:49:25.238Z,55.01
2023-05-05T17:51:53.231Z,55.32
2023-05-05T17:54:21.069Z,55.43
2023-05-05T17:56:48.937Z,56.96
2023-05-05T17:59:16.813Z,56.75
2023-05-05T18:01:44.799Z,57.47
2023-05-05T18:04:14.105Z,57.80
2023-05-05T18:06:42.024Z,57.97
2023-05-05T18:09:11.209Z,58.18
2023-05-05T18:11:39.265Z,58.40
2023-05-05T18:14:07.238Z,58.49
2023-05-05T18:16:35.175Z,58.82
2023-05-05T18:19:03.206Z,59.01
2023-05-05T18:21:32.465Z,59.58
2023-05-05T18:24:11.579Z,59.83
2023-05-05T18:26:49.053Z,61.06
2023-05-05T18:29:17.090Z,61.02
2023-05-05T18:31:45.178Z,60.91
2023-05-05T18:34:13.150Z,61.14
2023-05-05T18:36:42.461Z,61.42
2023-05-05T18:39:10.389Z,63.01
2023-05-05T18:41:38.486Z,62.10
2023-05-05T18:44:06.506Z,63.69
2023-05-05T18:46:34.548Z,63.04
2023-05-05T18:49:02.465Z,62.68
2023-05-05T18:51:30.837Z,62.97
2023-05-05T18:54:00.897Z,63.73
2023-05-05T18:56:29.524Z,64.56
2023-05-05T18:58:57.525Z,63.79
2023-05-05T19:01:25.892Z,63.92
2023-05-05T19:03:54.303Z,65.32
2023-05-05T19:06:22.634Z,64.51
2023-05-05T19:08:50.834Z,65.42
2023-05-05T19:11:20.563Z,67.40
2023-05-05T19:13:48.708Z,67.05
2023-05-05T19:16:17.148Z,67.12
2023-05-05T19:18:45.438Z,65.92
2023-05-05T19:21:13.673Z,66.20
2023-05-05T19:23:41.991Z,66.83
2023-05-05T19:26:11.673Z,67.53
2023-05-05T19:28:41.326Z,70.01
2023-05-05T19:31:09.559Z,70.18
2023-05-05T19:33:37.816Z,69.68
2023-05-05T19:36:06.446Z,70.92
2023-05-05T19:38:34.604Z,69.60
2023-05-05T19:41:02.965Z,69.43
2023-05-05T19:43:31.424Z,68.95
2023-05-05T19:46:01.889Z,69.07
2023-05-05T19:48:30.135Z,69.34
2023-05-05T19:50:58.169Z,68.87
2023-05-05T19:53:27.058Z,69.44
2023-05-05T19:55:55.064Z,69.20
2023-05-05T19:58:23.260Z,68.48
2023-05-05T20:00:51.181Z,69.43
2023-05-05T20:03:21.300Z,69.72
2023-05-05T20:05:49.441Z,69.79
2023-05-05T20:08:17.491Z,69.89
2023-05-05T20:10:45.509Z,69.77
2023-05-05T20:13:13.400Z,69.80
2023-05-05T20:15:41.632Z,70.67
2023-05-05T20:18:09.963Z,70.74
2023-05-05T20:20:39.425Z,71.31
2023-05-05T20:23:07.557Z,71.35
2023-05-05T20:25:35.527Z,71.27
2023-05-05T20:28:03.432Z,71.82
2023-05-05T20:30:31.802Z,71.48
2023-05-05T20:32:59.745Z,72.14
2023-05-05T20:35:27.759Z,71.91
2023-05-05T20:37:57.004Z,72.79
2023-05-05T20:40:24.826Z,72.67
2023-05-05T20:42:52.722Z,72.58
2023-05-05T20:45:20.596Z,72.08
2023-05-05T20:47:48.537Z,71.78
2023-05-05T20:50:17.887Z,72.24
2023-05-05T20:52:45.998Z,72.39
2023-05-05T20:55:15.223Z,72.45
2023-05-05T20:57:43.218Z,72.49
2023-05-05T21:00:12.026Z,72.76
2023-05-05T21:02:40.228Z,72.80
2023-05-05T21:05:08.925Z,73.86
2023-05-05T21:07:36.967Z,74.88
2023-05-05T21:10:05.955Z,75.26
2023-05-05T21:12:35.633Z,76.01
2023-05-05T21:15:03.810Z,76.69
2023-05-05T21:17:31.750Z,76.89
2023-05-05T21:19:59.788Z,76.55
2023-05-05T21:22:27.934Z,76.88
2023-05-05T21:24:55.773Z,76.97
2023-05-05T21:27:25.052Z,77.07
2023-05-05T21:29:54.316Z,78.78
2023-05-05T21:32:22.250Z,79.71
2023-05-05T21:34:50.304Z,79.07
2023-05-05T21:37:18.208Z,79.60
2023-05-05T21:39:46.104Z,80.55
2023-05-05T21:42:14.096Z,80.15
2023-05-05T21:44:41.908Z,79.78
2023-05-05T21:47:11.551Z,79.55
2023-05-05T21:49:39.476Z,79.39
2023-05-05T21:52:07.403Z,78.51
2023-05-05T21:54:35.444Z,78.65
2023-05-05T21:57:03.467Z,77.86
2023-05-05T21:59:31.324Z,78.78
2023-05-05T22:01:59.210Z,78.01
2023-05-05T22:04:28.430Z,79.25
2023-05-05T22:06:56.590Z,79.23
2023-05-05T22:09:24.479Z,80.61
2023-05-05T22:11:52.470Z,81.05
2023-05-05T22:14:20.373Z,82.33
2023-05-05T22:16:48.317Z,82.08
2023-05-05T22:19:16.416Z,82.45
2023-05-05T22:21:46.020Z,81.46
2023-05-05T22:24:14.006Z,82.56
2023-05-05T22:26:43.361Z,82.83
2023-05-05T22:29:14.390Z,83.09
2023-05-05T22:31:42.391Z,83.89
2023-05-05T22:34:10.410Z,84.62
2023-05-05T22:36:38.278Z,83.94
2023-05-05T22:39:07.611Z,84.86
2023-05-05T22:41:35.533Z,85.30
2023-05-05T22:44:03.504Z,85.39
2023-05-05T22:46:31.580Z,85.87
2023-05-05T22:48:59.692Z,85.89
2023-05-05T22:51:27.889Z,86.96
2023-05-05T22:53:55.794Z,87.17
2023-05-05T22:56:25.155Z,88.13
2023-05-05T22:58:53.020Z,87.56
2023-05-05T23:01:20.915Z,88.57
2023-05-05T23:03:48.944Z,87.77
2023-05-05T23:06:16.962Z,88.80
2023-05-05T23:08:44.811Z,88.93
2023-05-05T23:11:12.777Z,88.65
2023-05-05T23:13:42.040Z,88.76
2023-05-05T23:16:09.965Z,88.14
2023-05-05T23:18:38.794Z,87.90
2023-05-05T23:21:06.726Z,88.78
2023-05-05T23:23:34.837Z,87.80
2023-05-05T23:26:02.812Z,87.84
2023-05-05T23:28:30.987Z,89.19
2023-05-05T23:31:00.580Z,89.49
2023-05-05T23:33:28.483Z,89.54
2023-05-05T23:35:56.368Z,90.66
2023-05-05T23:38:24.263Z,90.85
2023-05-05T23:40:52.154Z,91.22
2023-05-05T23:43:20.182Z,90.49
2023-05-05T23:45:48.143Z,90.55
2023-05-05T23:48:17.532Z,90.55
2023-05-05T23:50:45.490Z,90.80
2023-05-05T23:53:13.479Z,90.69
2023-05-05T23:55:41.490Z,90.92
2023-05-05T23:58:09.432Z,91.37
